createdAt,value
2023-02-02T00:01:43.612Z,100259.97
2023-02-02T00:04:24.022Z,100275.63
2023-02-02T00:06:50.670Z,100275.09
2023-02-02T00:09:19.139Z,100278.56
2023-02-02T00:11:57.811Z,100274.78
2023-02-02T00:14:44.630Z,100284.72
2023-02-02T00:17:11.243Z,100286.56
2023-02-02T00:19:37.908Z,100289.50
2023-02-02T00:22:07.092Z,100288.03
2023-02-02T00:24:33.816Z,100290.47
2023-02-02T00:27:00.784Z,100287.44
2023-02-02T00:29:29.814Z,100285.31
2023-02-02T00:31:56.750Z,100286.66
2023-02-02T00:34:26.406Z,100276.28
2023-02-02T00:36:57.624Z,100279.41
2023-02-02T00:39:28.574Z,100281.72
2023-02-02T00:41:55.265Z,100276.78
2023-02-02T00:44:40.468Z,100277.94
2023-02-02T00:47:07.119Z,100285.56
2023-02-02T00:49:33.747Z,100301.84
2023-02-02T00:52:00.526Z,100293.22
2023-02-02T00:54:27.646Z,100292.22
2023-02-02T00:56:54.541Z,100292.38
2023-02-02T00:59:21.213Z,100296.22
2023-02-02T01:01:48.007Z,100297.00
2023-02-02T01:04:14.614Z,100299.16
2023-02-02T01:06:41.315Z,100299.47
2023-02-02T01:09:08.314Z,100291.56
2023-02-02T01:11:34.947Z,100316.22
2023-02-02T01:14:02.856Z,100316.44
2023-02-02T01:16:29.690Z,100313.59
2023-02-02T01:18:56.395Z,100308.63
2023-02-02T01:21:23.601Z,100320.53
2023-02-02T01:23:50.392Z,100326.81
2023-02-02T01:26:22.263Z,100333.47
2023-02-02T01:28:48.938Z,100331.16
2023-02-02T01:31:17.607Z,100329.13
2023-02-02T01:33:45.415Z,100333.16
2023-02-02T01:36:14.596Z,100329.81
2023-02-02T01:38:42.558Z,100330.59
2023-02-02T01:41:12.922Z,100341.84
2023-02-02T01:43:45.501Z,100334.22
2023-02-02T01:46:16.312Z,100341.38
2023-02-02T01:48:52.477Z,100343.06
2023-02-02T01:51:38.794Z,100348.16
2023-02-02T01:54:08.587Z,100340.72
2023-02-02T01:56:39.692Z,100347.50
2023-02-02T01:59:06.476Z,100341.41
2023-02-02T02:01:33.473Z,100348.66
2023-02-02T02:04:00.536Z,100338.03
2023-02-02T02:06:28.517Z,100351.66
2023-02-02T02:09:00.352Z,100343.56
2023-02-02T02:11:27.351Z,100335.75
2023-02-02T02:14:14.104Z,100342.03
2023-02-02T02:17:02.896Z,100354.63
2023-02-02T02:20:07.539Z,100350.34
2023-02-02T02:23:14.485Z,100355.00
2023-02-02T02:26:32.317Z,100363.63
2023-02-02T02:29:17.654Z,100356.19
2023-02-02T02:31:53.899Z,100372.88
2023-02-02T02:34:39.468Z,100365.75
2023-02-02T02:37:26.739Z,100371.56
2023-02-02T02:40:16.641Z,100375.06
2023-02-02T02:42:48.871Z,100372.72
2023-02-02T02:45:19.848Z,100367.91
2023-02-02T02:47:49.771Z,100375.91
2023-02-02T02:50:27.885Z,100366.91
2023-02-02T02:53:17.035Z,100368.94
2023-02-02T02:55:53.932Z,100374.06
2023-02-02T02:58:32.139Z,100363.16
2023-02-02T03:01:10.260Z,100384.03
2023-02-02T03:03:57.949Z,100367.97
2023-02-02T03:06:48.254Z,100371.50
2023-02-02T03:09:31.480Z,100378.81
2023-02-02T03:12:00.452Z,100382.97
2023-02-02T03:14:29.414Z,100376.31
2023-02-02T03:16:56.120Z,100393.38
2023-02-02T03:19:23.939Z,100385.03
2023-02-02T03:21:58.141Z,100381.84
2023-02-02T03:24:42.457Z,100380.72
2023-02-02T03:27:09.083Z,100372.94
2023-02-02T03:29:35.811Z,100385.53
2023-02-02T03:32:05.231Z,100382.44
2023-02-02T03:34:31.936Z,100401.50
2023-02-02T03:36:58.717Z,100401.47
2023-02-02T03:39:28.287Z,100393.69
2023-02-02T03:41:57.631Z,100398.13
2023-02-02T03:44:33.210Z,100387.88
2023-02-02T03:46:59.979Z,100395.38
2023-02-02T03:49:29.743Z,100387.25
2023-02-02T03:51:58.825Z,100397.84
2023-02-02T03:54:29.480Z,100401.63
2023-02-02T03:56:58.974Z,100396.03
2023-02-02T03:59:30.463Z,100402.81
2023-02-02T04:01:59.648Z,100403.69
2023-02-02T04:04:34.020Z,100406.53
2023-02-02T04:07:01.811Z,100403.72
2023-02-02T04:09:28.573Z,100401.56
2023-02-02T04:11:57.613Z,100422.28
2023-02-02T04:14:31.836Z,100421.47
2023-02-02T04:16:58.445Z,100422.63
2023-02-02T04:19:27.020Z,100421.31
2023-02-02T04:21:59.043Z,100425.59
2023-02-02T04:24:25.782Z,100420.31
2023-02-02T04:26:52.528Z,100432.75
2023-02-02T04:29:19.163Z,100438.06
2023-02-02T04:31:45.888Z,100433.75
2023-02-02T04:34:17.813Z,100437.91
2023-02-02T04:36:44.781Z,100429.47
2023-02-02T04:39:12.257Z,100439.44
2023-02-02T04:41:38.999Z,100425.81
2023-02-02T04:44:06.842Z,100432.13
2023-02-02T04:46:33.616Z,100429.81
2023-02-02T04:49:00.182Z,100432.59
2023-02-02T04:51:26.847Z,100427.47
2023-02-02T04:53:53.517Z,100429.63
2023-02-02T04:56:20.060Z,100430.47
2023-02-02T04:58:49.137Z,100416.53
2023-02-02T05:01:18.972Z,100435.25
2023-02-02T05:03:46.178Z,100425.66
2023-02-02T05:06:15.784Z,100429.97
2023-02-02T05:08:43.353Z,100426.50
2023-02-02T05:11:11.274Z,100434.13
2023-02-02T05:13:38.231Z,100432.50
2023-02-02T05:16:05.490Z,100434.78
2023-02-02T05:18:32.752Z,100431.81
2023-02-02T05:21:03.748Z,100435.66
2023-02-02T05:23:30.823Z,100430.50
2023-02-02T05:25:57.617Z,100429.88
2023-02-02T05:28:24.809Z,100437.00
2023-02-02T05:30:51.646Z,100442.13
2023-02-02T05:33:19.540Z,100442.66
2023-02-02T05:35:49.425Z,100451.44
2023-02-02T05:38:16.422Z,100453.41
2023-02-02T05:40:43.056Z,100447.75
2023-02-02T05:43:09.775Z,100447.31
2023-02-02T05:45:36.624Z,100451.28
2023-02-02T05:48:03.375Z,100453.59
2023-02-02T05:50:30.059Z,100449.97
2023-02-02T05:53:04.137Z,100454.63
2023-02-02T05:55:30.747Z,100452.63
2023-02-02T05:57:59.672Z,100461.25
2023-02-02T06:00:26.422Z,100458.06
2023-02-02T06:02:53.080Z,100452.97
2023-02-02T06:05:23.392Z,100462.75
2023-02-02T06:07:59.039Z,100472.69
2023-02-02T06:10:25.648Z,100474.53
2023-02-02T06:12:52.247Z,100465.25
2023-02-02T06:15:29.358Z,100485.16
2023-02-02T06:17:56.129Z,100478.69
2023-02-02T06:20:22.905Z,100469.56
2023-02-02T06:22:59.358Z,100484.50
2023-02-02T06:25:26.223Z,100477.84
2023-02-02T06:27:59.969Z,100497.72
2023-02-02T06:30:27.702Z,100492.41
2023-02-02T06:32:54.500Z,100491.66
2023-02-02T06:35:21.322Z,100497.16
2023-02-02T06:37:48.401Z,100499.28
2023-02-02T06:40:15.343Z,100510.81
2023-02-02T06:43:04.721Z,100513.78
2023-02-02T06:45:31.527Z,100515.41
2023-02-02T06:48:04.139Z,100528.09
2023-02-02T06:50:30.877Z,100523.47
2023-02-02T06:52:57.840Z,100525.06
2023-02-02T06:55:24.811Z,100533.34
2023-02-02T06:57:57.506Z,100535.16
2023-02-02T07:00:25.736Z,100520.75
2023-02-02T07:02:55.670Z,100525.91
2023-02-02T07:05:24.222Z,100529.56
2023-02-02T07:07:51.351Z,100532.22
2023-02-02T07:11:13.664Z,100533.50
2023-02-02T07:13:06.927Z,100534.91
2023-02-02T07:15:34.532Z,100532.28
2023-02-02T07:18:01.247Z,100541.41
2023-02-02T07:20:27.924Z,100544.19
2023-02-02T07:22:54.482Z,100553.50
2023-02-02T07:25:21.137Z,100548.69
2023-02-02T07:27:54.863Z,100548.59
2023-02-02T07:30:22.073Z,100549.44
2023-02-02T07:32:49.903Z,100544.75
2023-02-02T07:35:22.510Z,100550.75
2023-02-02T07:37:53.747Z,100544.91
2023-02-02T07:40:20.578Z,100554.50
2023-02-02T07:42:56.067Z,100556.78
2023-02-02T07:45:27.534Z,100565.22
2023-02-02T07:47:57.117Z,100556.72
2023-02-02T07:50:24.066Z,100562.50
2023-02-02T07:52:51.182Z,100551.53
2023-02-02T07:55:20.801Z,100562.88
2023-02-02T07:57:48.532Z,100558.94
2023-02-02T08:00:19.737Z,100559.66
2023-02-02T08:02:51.649Z,100561.94
2023-02-02T08:05:27.540Z,100570.81
2023-02-02T08:07:54.341Z,100560.16
2023-02-02T08:10:24.505Z,100576.06
2023-02-02T08:13:00.355Z,100581.47
2023-02-02T08:15:27.266Z,100573.78
2023-02-02T08:17:54.127Z,100580.34
2023-02-02T08:20:27.998Z,100588.38
2023-02-02T08:22:54.676Z,100594.50
2023-02-02T08:25:25.783Z,100590.19
2023-02-02T08:27:58.741Z,100599.13
2023-02-02T08:30:25.509Z,100599.00
2023-02-02T08:32:52.234Z,100601.84
2023-02-02T08:35:40.236Z,100608.22
2023-02-02T08:38:21.136Z,100603.97
2023-02-02T08:40:47.735Z,100607.38
2023-02-02T08:43:16.499Z,100610.09
2023-02-02T08:46:01.532Z,100613.50
2023-02-02T08:48:37.658Z,100620.72
2023-02-02T08:51:04.863Z,100632.97
2023-02-02T08:53:32.484Z,100627.75
2023-02-02T08:56:09.727Z,100633.59
2023-02-02T08:58:52.312Z,100629.03
2023-02-02T09:01:28.838Z,100640.31
2023-02-02T09:03:57.233Z,100631.94
2023-02-02T09:06:28.660Z,100649.03
2023-02-02T09:09:04.609Z,100645.03
2023-02-02T09:11:31.647Z,100649.41
2023-02-02T09:13:59.657Z,100654.47
2023-02-02T09:16:33.033Z,100664.56
2023-02-02T09:18:59.975Z,100666.22
2023-02-02T09:21:26.658Z,100671.97
2023-02-02T09:24:03.278Z,100673.63
2023-02-02T09:26:30.269Z,100672.13
2023-02-02T09:29:02.662Z,100673.75
2023-02-02T09:31:31.425Z,100677.31
2023-02-02T09:34:04.323Z,100667.78
2023-02-02T09:36:31.372Z,100675.44
2023-02-02T09:39:02.166Z,100685.06
2023-02-02T09:41:34.923Z,100686.09
2023-02-02T09:44:24.438Z,100695.59
2023-02-02T09:46:57.200Z,100693.13
2023-02-02T09:50:07.997Z,100695.41
2023-02-02T09:52:34.664Z,100699.16
2023-02-02T09:55:32.656Z,100710.94
2023-02-02T09:58:12.237Z,100711.75
2023-02-02T10:00:44.337Z,100718.13
2023-02-02T10:03:16.486Z,100714.94
2023-02-02T10:05:57.855Z,100719.34
2023-02-02T10:08:34.977Z,100724.00
2023-02-02T10:11:12.395Z,100723.88
2023-02-02T10:13:59.515Z,100722.97
2023-02-02T10:16:26.512Z,100726.84
2023-02-02T10:18:57.977Z,100726.31
2023-02-02T10:21:45.771Z,100728.09
2023-02-02T10:24:27.945Z,100722.38
2023-02-02T10:27:05.662Z,100729.38
2023-02-02T10:29:48.930Z,100739.53
2023-02-02T10:32:30.921Z,100725.59
2023-02-02T10:35:22.418Z,100733.34
2023-02-02T10:38:00.879Z,100733.34
2023-02-02T10:40:44.500Z,100732.09
2023-02-02T10:43:47.993Z,100744.25
2023-02-02T10:46:27.796Z,100746.75
2023-02-02T10:49:21.612Z,100745.44
2023-02-02T10:52:04.776Z,100747.28
2023-02-02T10:54:58.445Z,100751.66
2023-02-02T10:57:47.727Z,100753.16
2023-02-02T11:00:20.201Z,100750.38
2023-02-02T11:02:49.802Z,100751.34
2023-02-02T11:05:49.276Z,100751.84
2023-02-02T11:08:18.900Z,100768.63
2023-02-02T11:10:47.301Z,100777.63
2023-02-02T11:13:31.816Z,100763.16
2023-02-02T11:16:16.837Z,100773.50
2023-02-02T11:18:55.268Z,100769.22
2023-02-02T11:21:38.042Z,100774.03
2023-02-02T11:24:21.271Z,100772.19
2023-02-02T11:27:27.721Z,100771.00
2023-02-02T11:34:33.149Z,100762.00
2023-02-02T11:37:40.098Z,100767.88
2023-02-02T11:40:55.481Z,100777.53
2023-02-02T11:50:39.209Z,100786.00
2023-02-02T11:53:31.012Z,100790.31
2023-02-02T12:04:24.393Z,100792.78
2023-02-02T12:07:00.528Z,100791.09
2023-02-02T12:09:47.772Z,100788.97
2023-02-02T12:17:06.371Z,100790.84
2023-02-02T12:20:20.037Z,100788.63
2023-02-02T12:22:58.811Z,100792.81
2023-02-02T12:25:33.794Z,100791.78
2023-02-02T12:28:39.572Z,100795.66
2023-02-02T12:31:20.915Z,100796.63
2023-02-02T12:34:21.352Z,100801.50
2023-02-02T12:37:04.078Z,100796.00
2023-02-02T12:39:45.234Z,100802.50
2023-02-02T12:42:33.080Z,100806.28
2023-02-02T12:45:07.912Z,100805.63
2023-02-02T12:47:48.079Z,100812.78
2023-02-02T12:50:39.661Z,100810.94
2023-02-02T12:53:17.075Z,100814.34
2023-02-02T12:56:04.978Z,100815.38
2023-02-02T12:58:39.793Z,100810.84
2023-02-02T13:01:31.862Z,100810.81
2023-02-02T13:04:31.227Z,100806.94
2023-02-02T13:07:29.091Z,100796.31
2023-02-02T13:10:25.584Z,100802.50
2023-02-02T13:12:58.143Z,100804.28
2023-02-02T13:15:32.076Z,100806.78
2023-02-02T13:18:00.924Z,100799.47
2023-02-02T13:20:36.746Z,100801.75
2023-02-02T13:23:21.948Z,100802.59
2023-02-02T13:26:16.390Z,100798.44
2023-02-02T13:29:05.861Z,100797.56
2023-02-02T13:31:45.806Z,100794.91
2023-02-02T13:34:35.863Z,100798.38
2023-02-02T13:37:23.736Z,100800.34
2023-02-02T13:39:57.026Z,100796.06
2023-02-02T13:42:42.198Z,100797.25
2023-02-02T13:45:49.793Z,100806.88
2023-02-02T13:48:33.927Z,100802.44
2023-02-02T13:51:15.923Z,100809.59
2023-02-02T13:54:19.960Z,100800.66
2023-02-02T14:00:03.654Z,100814.69
2023-02-02T14:02:56.725Z,100822.31
2023-02-02T14:05:27.292Z,100813.84
2023-02-02T14:08:21.948Z,100823.00
2023-02-02T14:11:33.513Z,100840.84
2023-02-02T14:17:22.634Z,100829.63
2023-02-02T14:20:27.681Z,100831.91
2023-02-02T14:26:49.030Z,100843.72
2023-02-02T14:30:12.966Z,100842.59
2023-02-02T14:33:50.008Z,100839.03
2023-02-02T14:36:22.879Z,100855.41
2023-02-02T14:39:11.620Z,100855.59
2023-02-02T14:42:14.879Z,100855.72
2023-02-02T14:45:19.317Z,100850.47
2023-02-02T14:47:54.617Z,100862.19
2023-02-02T14:50:39.472Z,100865.38
2023-02-02T14:53:13.174Z,100862.63
2023-02-02T14:56:15.399Z,100863.09
2023-02-02T14:58:51.341Z,100871.38
2023-02-02T15:01:23.652Z,100878.09
2023-02-02T15:04:10.284Z,100878.41
2023-02-02T15:10:48.358Z,100890.47
2023-02-02T15:13:17.506Z,100883.63
2023-02-02T15:24:23.657Z,100913.31
2023-02-02T15:27:16.166Z,100922.63
2023-02-02T15:33:44.035Z,100928.28
2023-02-02T15:37:16.397Z,100936.22
2023-02-02T15:45:04.692Z,100952.31
2023-02-02T15:50:39.661Z,100980.28
2023-02-02T15:53:06.519Z,100976.50
2023-02-02T15:55:42.821Z,100981.09
2023-02-02T15:58:24.469Z,100987.66
2023-02-02T16:01:03.592Z,100995.34
2023-02-02T16:03:46.920Z,100989.22
2023-02-02T16:06:23.043Z,100991.31
2023-02-02T16:09:44.308Z,101010.16
2023-02-02T16:12:24.713Z,101019.38
2023-02-02T16:14:53.676Z,101012.53
2023-02-02T16:18:20.468Z,101018.56
2023-02-02T16:21:41.024Z,101020.91
2023-02-02T16:24:22.643Z,101027.31
2023-02-02T16:26:51.475Z,101026.22
2023-02-02T16:29:19.220Z,101018.97
2023-02-02T16:31:48.513Z,101016.03
2023-02-02T16:34:22.105Z,101025.94
2023-02-02T16:37:12.472Z,101019.66
2023-02-02T16:39:43.163Z,101018.25
2023-02-02T16:42:22.844Z,101027.03
2023-02-02T16:44:49.728Z,101013.66
2023-02-02T16:47:26.603Z,101000.97
2023-02-02T16:50:30.898Z,100999.44
2023-02-02T16:53:21.791Z,100999.88
2023-02-02T16:55:51.162Z,100975.84
2023-02-02T16:58:28.546Z,100965.94
2023-02-02T17:01:08.828Z,100972.38
2023-02-02T17:03:46.582Z,100950.91
2023-02-02T17:06:13.978Z,100940.31
2023-02-02T17:08:48.587Z,100938.63
2023-02-02T17:11:28.681Z,100935.00
2023-02-02T17:13:55.439Z,100931.66
2023-02-02T17:16:25.495Z,100932.75
2023-02-02T17:18:56.347Z,100935.44
2023-02-02T17:21:24.576Z,100936.28
2023-02-02T17:23:54.168Z,100935.56
2023-02-02T17:26:31.606Z,100928.03
2023-02-02T17:29:00.344Z,100937.41
2023-02-02T17:31:27.225Z,100930.44
2023-02-02T17:34:01.150Z,100937.41
2023-02-02T17:36:27.757Z,100941.16
2023-02-02T17:38:54.546Z,100939.50
2023-02-02T17:41:21.238Z,100942.84
2023-02-02T17:43:47.857Z,100951.47
2023-02-02T17:46:18.680Z,100948.41
2023-02-02T17:48:45.509Z,100949.25
2023-02-02T17:51:16.843Z,100947.97
2023-02-02T17:53:57.590Z,100960.13
2023-02-02T17:56:31.812Z,100965.00
2023-02-02T17:58:58.462Z,100964.31
2023-02-02T18:01:25.142Z,100966.13
2023-02-02T18:03:51.803Z,100982.88
2023-02-02T18:06:18.632Z,100981.31
2023-02-02T18:08:51.750Z,100976.72
2023-02-02T18:11:18.704Z,100980.34
2023-02-02T18:13:49.873Z,100988.84
2023-02-02T18:16:24.940Z,100990.94
2023-02-02T18:18:51.868Z,100996.69
2023-02-02T18:21:18.652Z,101002.22
2023-02-02T18:23:48.750Z,100997.91
2023-02-02T18:26:18.217Z,100994.44
2023-02-02T18:28:46.060Z,101010.06
2023-02-02T18:31:14.292Z,101014.50
2023-02-02T18:33:41.732Z,101026.94
2023-02-02T18:36:19.043Z,101017.16
2023-02-02T18:38:58.658Z,101040.88
2023-02-02T18:41:25.540Z,101036.56
2023-02-02T18:43:54.764Z,101039.34
2023-02-02T18:46:28.540Z,101042.97
2023-02-02T18:48:55.747Z,101052.31
2023-02-02T18:51:22.742Z,101050.91
2023-02-02T18:54:00.000Z,101053.97
2023-02-02T18:56:27.602Z,101050.94
2023-02-02T18:58:54.622Z,101047.56
2023-02-02T19:01:31.375Z,101051.75
2023-02-02T19:03:58.562Z,101055.78
2023-02-02T19:06:45.409Z,101059.69
2023-02-02T19:09:17.364Z,101046.72
2023-02-02T19:11:49.153Z,101065.53
2023-02-02T19:14:35.424Z,101068.19
2023-02-02T19:17:14.795Z,101071.69
2023-02-02T19:19:43.097Z,101069.88
2023-02-02T19:22:24.283Z,101074.34
2023-02-02T19:24:51.225Z,101075.88
2023-02-02T19:27:21.251Z,101079.09
2023-02-02T19:30:00.265Z,101081.75
2023-02-02T19:32:31.906Z,101091.38
2023-02-02T19:35:04.287Z,101086.34
2023-02-02T19:37:32.519Z,101107.81
2023-02-02T19:40:08.753Z,101107.38
2023-02-02T19:42:40.601Z,101112.56
2023-02-02T19:45:25.712Z,101119.41
2023-02-02T19:48:00.575Z,101123.16
2023-02-02T19:50:40.690Z,101132.22
2023-02-02T19:53:30.449Z,101132.09
2023-02-02T19:55:57.547Z,101140.88
2023-02-02T19:58:28.316Z,101152.47
2023-02-02T20:00:58.144Z,101136.28
2023-02-02T20:03:25.017Z,101145.63
2023-02-02T20:05:52.947Z,101150.78
2023-02-02T20:08:31.821Z,101140.47
2023-02-02T20:11:00.892Z,101133.19
2023-02-02T20:13:54.982Z,101137.94
2023-02-02T20:16:24.217Z,101153.56
2023-02-02T20:18:53.944Z,101151.84
2023-02-02T20:21:36.775Z,101155.91
2023-02-02T20:24:11.047Z,101156.63
2023-02-02T20:26:38.352Z,101158.84
2023-02-02T20:29:38.850Z,101160.50
2023-02-02T20:32:06.024Z,101163.47
2023-02-02T20:34:36.125Z,101165.81
2023-02-02T20:37:20.299Z,101172.50
2023-02-02T20:39:54.002Z,101170.53
2023-02-02T20:42:20.901Z,101169.56
2023-02-02T20:44:47.961Z,101171.22
2023-02-02T20:47:14.702Z,101172.63
2023-02-02T20:49:44.017Z,101168.97
2023-02-02T20:52:18.239Z,101176.38
2023-02-02T20:54:44.856Z,101165.44
2023-02-02T20:57:20.184Z,101169.19
2023-02-02T20:59:46.854Z,101171.44
2023-02-02T21:02:28.053Z,101196.44
2023-02-02T21:04:54.813Z,101210.88
2023-02-02T21:07:22.015Z,101225.50
2023-02-02T21:09:58.667Z,101233.19
2023-02-02T21:12:25.737Z,101235.56
2023-02-02T21:14:53.876Z,101228.81
2023-02-02T21:17:23.696Z,101236.66
2023-02-02T21:19:50.587Z,101225.28
2023-02-02T21:22:17.212Z,101233.94
2023-02-02T21:24:43.899Z,101245.56
2023-02-02T21:27:10.609Z,101235.06
2023-02-02T21:29:47.405Z,101250.44
2023-02-02T21:32:14.024Z,101244.28
2023-02-02T21:34:40.648Z,101242.28
2023-02-02T21:37:22.526Z,101251.50
2023-02-02T21:39:53.479Z,101260.38
2023-02-02T21:42:24.755Z,101264.28
2023-02-02T21:44:56.355Z,101265.66
2023-02-02T21:47:33.464Z,101268.91
2023-02-02T21:50:23.123Z,101269.84
2023-02-02T21:53:09.692Z,101264.94
2023-02-02T21:55:45.199Z,101264.41
2023-02-02T21:58:26.274Z,101263.72
2023-02-02T22:00:54.045Z,101266.09
2023-02-02T22:03:26.971Z,101255.75
2023-02-02T22:06:21.965Z,101247.00
2023-02-02T22:08:49.781Z,101248.38
2023-02-02T22:11:36.464Z,101246.56
2023-02-02T22:14:24.871Z,101258.03
2023-02-02T22:16:58.403Z,101240.16
2023-02-02T22:19:35.453Z,101244.28
2023-02-02T22:25:28.906Z,101241.47
2023-02-02T22:28:01.681Z,101237.66
2023-02-02T22:30:53.994Z,101224.66
2023-02-02T22:33:21.827Z,101221.09
2023-02-02T22:35:48.474Z,101218.44
2023-02-02T22:38:25.175Z,101505.28
2023-02-02T22:40:52.163Z,101503.06
2023-02-02T22:43:20.037Z,101503.59
2023-02-02T22:45:47.220Z,101501.09
2023-02-02T22:48:29.011Z,101503.31
2023-02-02T22:50:55.812Z,101508.94
2023-02-02T22:53:22.416Z,101514.41
2023-02-02T22:55:56.749Z,101511.06
2023-02-02T22:58:24.739Z,101521.53
2023-02-02T23:00:51.435Z,101531.78
2023-02-02T23:03:25.418Z,101532.56
2023-02-02T23:05:52.142Z,101533.59
2023-02-02T23:08:19.845Z,101546.06
2023-02-02T23:10:53.588Z,101526.00
2023-02-02T23:13:20.676Z,101525.16
2023-02-02T23:15:47.323Z,101525.16
2023-02-02T23:18:14.659Z,101523.16
2023-02-02T23:20:41.251Z,101523.72
2023-02-02T23:23:15.496Z,101523.03
2023-02-02T23:25:42.265Z,101512.25
2023-02-02T23:28:10.484Z,101496.03
2023-02-02T23:30:44.436Z,101491.06
2023-02-02T23:33:11.489Z,101488.31
2023-02-02T23:35:38.144Z,101496.22
2023-02-02T23:38:04.731Z,101496.22
2023-02-02T23:40:31.408Z,101499.75
2023-02-02T23:43:23.421Z,101505.19
2023-02-02T23:45:50.114Z,101508.56
2023-02-02T23:48:17.187Z,101521.03
2023-02-02T23:50:45.040Z,101501.41
2023-02-02T23:53:19.573Z,101504.22
2023-02-02T23:55:46.211Z,101500.16
2023-02-02T23:58:13.259Z,101499.03
